sensor_id;sensor_type;location;lat;lon;timestamp;temperature;humidity
32394;DHT22;18853;45.426;9.206;2022-09-09T00:00:06;29.60;48.80
32394;DHT22;18853;45.426;9.206;2022-09-09T00:02:32;29.50;49.30
32394;DHT22;18853;45.426;9.206;2022-09-09T00:15:12;29.20;50.00
32394;DHT22;18853;45.426;9.206;2022-09-09T00:17:39;29.20;50.00
32394;DHT22;18853;45.426;9.206;2022-09-09T00:22:31;29.30;50.20
32394;DHT22;18853;45.426;9.206;2022-09-09T00:27:38;29.20;50.30
32394;DHT22;18853;45.426;9.206;2022-09-09T00:32:37;29.30;50.20
32394;DHT22;18853;45.426;9.206;2022-09-09T00:35:04;29.30;50.30
32394;DHT22;18853;45.426;9.206;2022-09-09T00:37:37;29.30;50.30
32394;DHT22;18853;45.426;9.206;2022-09-09T00:40:07;29.30;50.70
32394;DHT22;18853;45.426;9.206;2022-09-09T00:42:42;29.20;50.50
32394;DHT22;18853;45.426;9.206;2022-09-09T00:47:46;29.20;50.60
32394;DHT22;18853;45.426;9.206;2022-09-09T00:52:49;29.30;50.60
32394;DHT22;18853;45.426;9.206;2022-09-09T00:58:06;29.30;50.70
32394;DHT22;18853;45.426;9.206;2022-09-09T01:01:18;29.30;50.70
32394;DHT22;18853;45.426;9.206;2022-09-09T01:03:28;29.30;50.70
32394;DHT22;18853;45.426;9.206;2022-09-09T01:14:02;29.10;51.30
32394;DHT22;18853;45.426;9.206;2022-09-09T01:16:29;29.10;51.20
32394;DHT22;18853;45.426;9.206;2022-09-09T01:18:55;29.10;51.10
32394;DHT22;18853;45.426;9.206;2022-09-09T01:26:41;29.10;51.40
32394;DHT22;18853;45.426;9.206;2022-09-09T01:29:11;29.00;51.40
32394;DHT22;18853;45.426;9.206;2022-09-09T01:31:59;29.10;51.30
32394;DHT22;18853;45.426;9.206;2022-09-09T01:34:24;29.10;51.30
32394;DHT22;18853;45.426;9.206;2022-09-09T01:39:18;29.10;51.20
32394;DHT22;18853;45.426;9.206;2022-09-09T01:41:44;29.20;51.20
32394;DHT22;18853;45.426;9.206;2022-09-09T01:44:09;29.20;51.00
32394;DHT22;18853;45.426;9.206;2022-09-09T01:46:35;29.30;50.80
32394;DHT22;18853;45.426;9.206;2022-09-09T01:49:02;29.30;50.90
32394;DHT22;18853;45.426;9.206;2022-09-09T01:51:27;29.30;51.00
32394;DHT22;18853;45.426;9.206;2022-09-09T01:53:53;29.20;50.90
32394;DHT22;18853;45.426;9.206;2022-09-09T01:56:32;29.20;51.30
32394;DHT22;18853;45.426;9.206;2022-09-09T01:59:03;29.10;51.30
32394;DHT22;18853;45.426;9.206;2022-09-09T02:04:10;29.10;51.50
32394;DHT22;18853;45.426;9.206;2022-09-09T02:06:38;29.10;51.50
32394;DHT22;18853;45.426;9.206;2022-09-09T02:09:05;29.10;51.40
32394;DHT22;18853;45.426;9.206;2022-09-09T02:11:32;29.10;51.30
32394;DHT22;18853;45.426;9.206;2022-09-09T02:14:00;29.10;51.40
32394;DHT22;18853;45.426;9.206;2022-09-09T02:16:43;29.10;51.30
32394;DHT22;18853;45.426;9.206;2022-09-09T02:19:11;29.10;51.40
32394;DHT22;18853;45.426;9.206;2022-09-09T02:21:38;29.10;51.50
32394;DHT22;18853;45.426;9.206;2022-09-09T02:24:05;29.10;51.60
32394;DHT22;18853;45.426;9.206;2022-09-09T02:26:33;29.00;51.40
32394;DHT22;18853;45.426;9.206;2022-09-09T02:29:01;29.10;51.60
32394;DHT22;18853;45.426;9.206;2022-09-09T02:31:26;29.00;51.50
32394;DHT22;18853;45.426;9.206;2022-09-09T02:33:56;29.10;51.60
32394;DHT22;18853;45.426;9.206;2022-09-09T02:36:23;29.00;51.50
32394;DHT22;18853;45.426;9.206;2022-09-09T02:38:49;29.00;51.70
32394;DHT22;18853;45.426;9.206;2022-09-09T02:41:22;29.00;51.70
32394;DHT22;18853;45.426;9.206;2022-09-09T02:43:49;29.00;51.70
32394;DHT22;18853;45.426;9.206;2022-09-09T02:51:11;28.90;51.90
32394;DHT22;18853;45.426;9.206;2022-09-09T02:56:21;28.90;51.70
32394;DHT22;18853;45.426;9.206;2022-09-09T02:58:48;28.80;52.00
32394;DHT22;18853;45.426;9.206;2022-09-09T03:01:14;28.80;51.90
32394;DHT22;18853;45.426;9.206;2022-09-09T03:03:40;28.80;52.60
32394;DHT22;18853;45.426;9.206;2022-09-09T03:06:06;28.80;52.30
32394;DHT22;18853;45.426;9.206;2022-09-09T03:08:32;28.80;52.30
32394;DHT22;18853;45.426;9.206;2022-09-09T03:10:58;28.80;52.40
32394;DHT22;18853;45.426;9.206;2022-09-09T03:13:26;28.80;52.20
32394;DHT22;18853;45.426;9.206;2022-09-09T03:15:52;28.80;52.50
32394;DHT22;18853;45.426;9.206;2022-09-09T03:18:17;28.70;52.50
32394;DHT22;18853;45.426;9.206;2022-09-09T03:20:43;28.80;52.60
32394;DHT22;18853;45.426;9.206;2022-09-09T03:23:08;28.80;52.60
32394;DHT22;18853;45.426;9.206;2022-09-09T03:25:34;28.70;52.70
32394;DHT22;18853;45.426;9.206;2022-09-09T03:28:00;28.70;52.70
32394;DHT22;18853;45.426;9.206;2022-09-09T03:30:26;28.70;52.90
32394;DHT22;18853;45.426;9.206;2022-09-09T03:32:52;28.70;52.90
32394;DHT22;18853;45.426;9.206;2022-09-09T03:35:18;28.60;52.90
32394;DHT22;18853;45.426;9.206;2022-09-09T03:37:44;28.60;52.80
32394;DHT22;18853;45.426;9.206;2022-09-09T03:40:10;28.70;52.90
32394;DHT22;18853;45.426;9.206;2022-09-09T03:42:36;28.70;52.90
32394;DHT22;18853;45.426;9.206;2022-09-09T03:45:05;28.60;53.00
32394;DHT22;18853;45.426;9.206;2022-09-09T03:47:30;28.60;53.70
32394;DHT22;18853;45.426;9.206;2022-09-09T03:49:56;28.60;53.20
32394;DHT22;18853;45.426;9.206;2022-09-09T03:52:21;28.60;53.30
32394;DHT22;18853;45.426;9.206;2022-09-09T03:54:50;28.60;53.50
32394;DHT22;18853;45.426;9.206;2022-09-09T03:57:16;28.50;53.70
32394;DHT22;18853;45.426;9.206;2022-09-09T03:59:42;28.50;53.60
32394;DHT22;18853;45.426;9.206;2022-09-09T04:02:08;28.40;53.60
32394;DHT22;18853;45.426;9.206;2022-09-09T04:04:34;28.30;53.90
32394;DHT22;18853;45.426;9.206;2022-09-09T04:06:59;28.30;53.70
32394;DHT22;18853;45.426;9.206;2022-09-09T04:09:25;28.30;54.30
32394;DHT22;18853;45.426;9.206;2022-09-09T04:11:51;28.20;54.30
32394;DHT22;18853;45.426;9.206;2022-09-09T04:14:17;28.30;54.20
32394;DHT22;18853;45.426;9.206;2022-09-09T04:16:43;28.30;54.10
32394;DHT22;18853;45.426;9.206;2022-09-09T04:19:10;28.30;54.00
32394;DHT22;18853;45.426;9.206;2022-09-09T04:21:37;28.40;54.00
32394;DHT22;18853;45.426;9.206;2022-09-09T04:24:05;28.30;54.00
32394;DHT22;18853;45.426;9.206;2022-09-09T04:26:30;28.30;53.90
32394;DHT22;18853;45.426;9.206;2022-09-09T04:28:56;28.30;54.10
32394;DHT22;18853;45.426;9.206;2022-09-09T04:31:22;28.30;54.20
32394;DHT22;18853;45.426;9.206;2022-09-09T04:33:51;28.30;54.20
32394;DHT22;18853;45.426;9.206;2022-09-09T04:36:16;28.40;54.30
32394;DHT22;18853;45.426;9.206;2022-09-09T04:38:43;28.40;53.70
32394;DHT22;18853;45.426;9.206;2022-09-09T04:41:09;28.40;53.90
32394;DHT22;18853;45.426;9.206;2022-09-09T04:43:36;28.40;54.20
32394;DHT22;18853;45.426;9.206;2022-09-09T04:46:02;28.30;54.20
32394;DHT22;18853;45.426;9.206;2022-09-09T04:48:28;28.40;54.30
32394;DHT22;18853;45.426;9.206;2022-09-09T04:50:54;28.40;54.20
32394;DHT22;18853;45.426;9.206;2022-09-09T04:53:20;28.40;54.30
32394;DHT22;18853;45.426;9.206;2022-09-09T04:55:46;28.40;54.20
32394;DHT22;18853;45.426;9.206;2022-09-09T04:58:11;28.40;53.90
32394;DHT22;18853;45.426;9.206;2022-09-09T05:00:37;28.50;53.80
32394;DHT22;18853;45.426;9.206;2022-09-09T05:03:03;28.50;54.30
32394;DHT22;18853;45.426;9.206;2022-09-09T05:05:29;28.40;54.80
32394;DHT22;18853;45.426;9.206;2022-09-09T05:08:00;28.40;55.00
32394;DHT22;18853;45.426;9.206;2022-09-09T05:10:25;28.30;55.10
32394;DHT22;18853;45.426;9.206;2022-09-09T05:12:52;28.20;55.20
32394;DHT22;18853;45.426;9.206;2022-09-09T05:15:18;28.10;55.30
32394;DHT22;18853;45.426;9.206;2022-09-09T05:17:43;28.00;55.40
32394;DHT22;18853;45.426;9.206;2022-09-09T05:20:09;27.90;55.60
32394;DHT22;18853;45.426;9.206;2022-09-09T05:22:34;27.90;56.00
32394;DHT22;18853;45.426;9.206;2022-09-09T05:25:00;27.90;55.80
32394;DHT22;18853;45.426;9.206;2022-09-09T05:27:26;28.00;55.90
32394;DHT22;18853;45.426;9.206;2022-09-09T05:29:52;27.90;55.90
32394;DHT22;18853;45.426;9.206;2022-09-09T05:32:17;27.90;55.90
32394;DHT22;18853;45.426;9.206;2022-09-09T05:34:43;28.00;56.00
32394;DHT22;18853;45.426;9.206;2022-09-09T05:37:08;28.00;56.00
32394;DHT22;18853;45.426;9.206;2022-09-09T05:39:34;28.00;56.00
32394;DHT22;18853;45.426;9.206;2022-09-09T05:42:02;27.90;56.20
32394;DHT22;18853;45.426;9.206;2022-09-09T05:44:30;28.00;56.00
32394;DHT22;18853;45.426;9.206;2022-09-09T05:46:55;28.00;56.10
32394;DHT22;18853;45.426;9.206;2022-09-09T05:49:21;28.00;56.00
32394;DHT22;18853;45.426;9.206;2022-09-09T05:51:46;28.10;55.80
32394;DHT22;18853;45.426;9.206;2022-09-09T05:54:13;28.10;55.80
32394;DHT22;18853;45.426;9.206;2022-09-09T05:56:40;28.10;55.80
32394;DHT22;18853;45.426;9.206;2022-09-09T05:59:06;28.20;55.80
32394;DHT22;18853;45.426;9.206;2022-09-09T06:01:33;28.10;55.90
32394;DHT22;18853;45.426;9.206;2022-09-09T06:03:59;28.10;55.80
32394;DHT22;18853;45.426;9.206;2022-09-09T06:06:25;28.10;55.70
32394;DHT22;18853;45.426;9.206;2022-09-09T06:08:52;28.10;55.60
32394;DHT22;18853;45.426;9.206;2022-09-09T06:11:27;28.10;55.50
32394;DHT22;18853;45.426;9.206;2022-09-09T06:13:56;28.10;55.50
32394;DHT22;18853;45.426;9.206;2022-09-09T06:16:23;28.10;55.50
32394;DHT22;18853;45.426;9.206;2022-09-09T06:18:49;28.20;55.50
32394;DHT22;18853;45.426;9.206;2022-09-09T06:21:15;28.20;55.40
32394;DHT22;18853;45.426;9.206;2022-09-09T06:23:41;28.20;55.40
32394;DHT22;18853;45.426;9.206;2022-09-09T06:26:11;28.10;55.30
32394;DHT22;18853;45.426;9.206;2022-09-09T06:28:37;28.10;55.30
32394;DHT22;18853;45.426;9.206;2022-09-09T06:31:04;28.10;55.40
32394;DHT22;18853;45.426;9.206;2022-09-09T06:33:30;28.10;55.30
32394;DHT22;18853;45.426;9.206;2022-09-09T06:35:56;28.10;55.30
32394;DHT22;18853;45.426;9.206;2022-09-09T06:38:22;28.10;55.30
32394;DHT22;18853;45.426;9.206;2022-09-09T06:40:54;28.10;55.20
32394;DHT22;18853;45.426;9.206;2022-09-09T06:43:21;28.10;55.20
32394;DHT22;18853;45.426;9.206;2022-09-09T06:46:00;28.10;55.20
32394;DHT22;18853;45.426;9.206;2022-09-09T06:48:26;28.20;55.10
32394;DHT22;18853;45.426;9.206;2022-09-09T06:51:05;28.10;55.10
32394;DHT22;18853;45.426;9.206;2022-09-09T06:53:31;28.10;55.10
32394;DHT22;18853;45.426;9.206;2022-09-09T06:55:59;28.10;54.90
32394;DHT22;18853;45.426;9.206;2022-09-09T06:58:26;28.00;55.10
32394;DHT22;18853;45.426;9.206;2022-09-09T07:00:51;28.10;54.90
32394;DHT22;18853;45.426;9.206;2022-09-09T07:03:18;28.10;54.60
32394;DHT22;18853;45.426;9.206;2022-09-09T07:05:43;28.20;54.20
32394;DHT22;18853;45.426;9.206;2022-09-09T07:08:18;28.10;54.10
32394;DHT22;18853;45.426;9.206;2022-09-09T07:10:44;28.10;53.70
32394;DHT22;18853;45.426;9.206;2022-09-09T07:13:09;28.10;52.70
32394;DHT22;18853;45.426;9.206;2022-09-09T07:15:35;28.10;53.10
32394;DHT22;18853;45.426;9.206;2022-09-09T07:18:00;28.00;52.90
32394;DHT22;18853;45.426;9.206;2022-09-09T07:20:27;28.10;52.80
32394;DHT22;18853;45.426;9.206;2022-09-09T07:22:54;28.10;52.50
32394;DHT22;18853;45.426;9.206;2022-09-09T07:25:20;28.10;52.20
32394;DHT22;18853;45.426;9.206;2022-09-09T07:27:46;28.10;51.70
32394;DHT22;18853;45.426;9.206;2022-09-09T07:30:11;28.10;51.60
32394;DHT22;18853;45.426;9.206;2022-09-09T07:32:37;28.10;51.50
32394;DHT22;18853;45.426;9.206;2022-09-09T07:35:02;28.20;51.10
32394;DHT22;18853;45.426;9.206;2022-09-09T07:37:28;28.20;51.00
32394;DHT22;18853;45.426;9.206;2022-09-09T07:39:53;28.20;50.70
32394;DHT22;18853;45.426;9.206;2022-09-09T07:42:19;28.20;50.70
32394;DHT22;18853;45.426;9.206;2022-09-09T07:44:45;28.20;50.50
32394;DHT22;18853;45.426;9.206;2022-09-09T07:47:10;28.20;50.30
32394;DHT22;18853;45.426;9.206;2022-09-09T07:49:36;28.20;50.10
32394;DHT22;18853;45.426;9.206;2022-09-09T07:52:01;28.20;50.20
32394;DHT22;18853;45.426;9.206;2022-09-09T07:54:28;28.20;50.00
32394;DHT22;18853;45.426;9.206;2022-09-09T07:56:53;28.30;49.80
32394;DHT22;18853;45.426;9.206;2022-09-09T07:59:19;28.30;49.50
32394;DHT22;18853;45.426;9.206;2022-09-09T08:01:46;28.20;49.40
32394;DHT22;18853;45.426;9.206;2022-09-09T08:04:13;28.20;49.60
32394;DHT22;18853;45.426;9.206;2022-09-09T08:06:43;28.20;49.40
32394;DHT22;18853;45.426;9.206;2022-09-09T08:09:09;28.20;49.20
32394;DHT22;18853;45.426;9.206;2022-09-09T08:11:35;28.20;49.10
32394;DHT22;18853;45.426;9.206;2022-09-09T08:14:01;28.20;49.30
32394;DHT22;18853;45.426;9.206;2022-09-09T08:16:28;28.20;48.20
32394;DHT22;18853;45.426;9.206;2022-09-09T08:18:55;28.10;48.90
32394;DHT22;18853;45.426;9.206;2022-09-09T08:21:22;28.10;48.90
32394;DHT22;18853;45.426;9.206;2022-09-09T08:23:50;28.10;49.10
32394;DHT22;18853;45.426;9.206;2022-09-09T08:26:18;28.10;49.10
32394;DHT22;18853;45.426;9.206;2022-09-09T08:28:46;28.10;49.10
32394;DHT22;18853;45.426;9.206;2022-09-09T08:31:13;28.10;48.90
32394;DHT22;18853;45.426;9.206;2022-09-09T08:33:39;28.20;48.60
32394;DHT22;18853;45.426;9.206;2022-09-09T08:36:08;28.20;48.60
32394;DHT22;18853;45.426;9.206;2022-09-09T08:38:34;28.30;49.20
32394;DHT22;18853;45.426;9.206;2022-09-09T08:41:06;28.30;48.60
32394;DHT22;18853;45.426;9.206;2022-09-09T08:43:36;28.20;48.60
32394;DHT22;18853;45.426;9.206;2022-09-09T08:46:05;28.30;48.90
32394;DHT22;18853;45.426;9.206;2022-09-09T08:48:46;28.20;48.60
32394;DHT22;18853;45.426;9.206;2022-09-09T08:51:14;28.20;48.80
32394;DHT22;18853;45.426;9.206;2022-09-09T08:53:44;28.20;48.80
32394;DHT22;18853;45.426;9.206;2022-09-09T08:56:16;28.20;48.70
32394;DHT22;18853;45.426;9.206;2022-09-09T08:58:45;28.20;49.10
32394;DHT22;18853;45.426;9.206;2022-09-09T09:09:01;28.20;47.30
32394;DHT22;18853;45.426;9.206;2022-09-09T09:11:34;28.20;47.30
32394;DHT22;18853;45.426;9.206;2022-09-09T09:14:01;28.20;47.00
32394;DHT22;18853;45.426;9.206;2022-09-09T09:18:54;28.20;46.20
32394;DHT22;18853;45.426;9.206;2022-09-09T09:21:21;28.30;46.60
32394;DHT22;18853;45.426;9.206;2022-09-09T09:23:56;28.30;46.40
32394;DHT22;18853;45.426;9.206;2022-09-09T09:26:23;28.30;45.70
32394;DHT22;18853;45.426;9.206;2022-09-09T09:28:52;28.30;45.50
32394;DHT22;18853;45.426;9.206;2022-09-09T09:31:20;28.40;46.20
32394;DHT22;18853;45.426;9.206;2022-09-09T09:33:47;28.40;46.10
32394;DHT22;18853;45.426;9.206;2022-09-09T09:36:14;28.40;44.80
32394;DHT22;18853;45.426;9.206;2022-09-09T09:38:51;28.40;45.00
32394;DHT22;18853;45.426;9.206;2022-09-09T09:41:17;28.40;44.90
32394;DHT22;18853;45.426;9.206;2022-09-09T09:43:54;28.40;45.00
32394;DHT22;18853;45.426;9.206;2022-09-09T09:46:21;28.40;44.50
32394;DHT22;18853;45.426;9.206;2022-09-09T09:48:57;28.50;44.80
32394;DHT22;18853;45.426;9.206;2022-09-09T09:51:23;28.50;44.20
32394;DHT22;18853;45.426;9.206;2022-09-09T09:53:50;28.50;44.30
32394;DHT22;18853;45.426;9.206;2022-09-09T09:56:18;28.50;44.70
32394;DHT22;18853;45.426;9.206;2022-09-09T09:58:51;28.60;44.60
32394;DHT22;18853;45.426;9.206;2022-09-09T10:03:50;28.80;44.70
32394;DHT22;18853;45.426;9.206;2022-09-09T10:06:16;28.60;43.50
32394;DHT22;18853;45.426;9.206;2022-09-09T10:08:45;28.60;43.70
32394;DHT22;18853;45.426;9.206;2022-09-09T10:16:30;28.80;44.10
32394;DHT22;18853;45.426;9.206;2022-09-09T10:18:59;28.80;43.90
32394;DHT22;18853;45.426;9.206;2022-09-09T10:26:27;28.80;43.90
32394;DHT22;18853;45.426;9.206;2022-09-09T10:36:58;28.80;44.30
32394;DHT22;18853;45.426;9.206;2022-09-09T10:52:28;28.90;44.00
32394;DHT22;18853;45.426;9.206;2022-09-09T10:55:03;28.90;43.90
32394;DHT22;18853;45.426;9.206;2022-09-09T10:57:42;28.80;44.40
32394;DHT22;18853;45.426;9.206;2022-09-09T11:00:19;28.80;44.20
32394;DHT22;18853;45.426;9.206;2022-09-09T11:02:45;28.80;44.20
32394;DHT22;18853;45.426;9.206;2022-09-09T11:05:16;28.90;44.10
32394;DHT22;18853;45.426;9.206;2022-09-09T11:07:52;28.90;44.10
32394;DHT22;18853;45.426;9.206;2022-09-09T11:12:49;28.90;43.90
32394;DHT22;18853;45.426;9.206;2022-09-09T11:15:20;28.90;44.20
32394;DHT22;18853;45.426;9.206;2022-09-09T11:17:50;28.90;44.00
32394;DHT22;18853;45.426;9.206;2022-09-09T11:20:17;28.90;44.10
32394;DHT22;18853;45.426;9.206;2022-09-09T11:22:45;29.00;44.10
32394;DHT22;18853;45.426;9.206;2022-09-09T11:35:20;29.20;44.50
32394;DHT22;18853;45.426;9.206;2022-09-09T11:40:34;29.30;44.20
32394;DHT22;18853;45.426;9.206;2022-09-09T11:43:04;29.40;44.20
32394;DHT22;18853;45.426;9.206;2022-09-09T11:45:31;29.50;44.10
32394;DHT22;18853;45.426;9.206;2022-09-09T11:47:59;29.40;43.60
32394;DHT22;18853;45.426;9.206;2022-09-09T11:52:50;29.50;43.70
32394;DHT22;18853;45.426;9.206;2022-09-09T11:55:26;29.60;43.40
32394;DHT22;18853;45.426;9.206;2022-09-09T11:58:01;29.60;43.90
32394;DHT22;18853;45.426;9.206;2022-09-09T12:00:30;29.70;43.20
32394;DHT22;18853;45.426;9.206;2022-09-09T12:02:58;29.80;42.70
32394;DHT22;18853;45.426;9.206;2022-09-09T12:05:24;29.80;43.10
32394;DHT22;18853;45.426;9.206;2022-09-09T12:08:00;29.70;42.70
32394;DHT22;18853;45.426;9.206;2022-09-09T12:10:30;29.70;42.90
32394;DHT22;18853;45.426;9.206;2022-09-09T12:13:07;29.60;43.00
32394;DHT22;18853;45.426;9.206;2022-09-09T12:15:34;29.70;42.80
32394;DHT22;18853;45.426;9.206;2022-09-09T12:18:00;29.80;43.30
32394;DHT22;18853;45.426;9.206;2022-09-09T12:28:19;30.40;42.80
32394;DHT22;18853;45.426;9.206;2022-09-09T12:33:42;30.50;42.10
32394;DHT22;18853;45.426;9.206;2022-09-09T12:36:17;30.60;41.60
32394;DHT22;18853;45.426;9.206;2022-09-09T12:38:44;30.70;41.70
32394;DHT22;18853;45.426;9.206;2022-09-09T12:41:20;30.90;41.40
32394;DHT22;18853;45.426;9.206;2022-09-09T12:43:46;31.00;42.00
32394;DHT22;18853;45.426;9.206;2022-09-09T12:46:23;31.10;40.90
32394;DHT22;18853;45.426;9.206;2022-09-09T12:48:51;31.10;39.90
32394;DHT22;18853;45.426;9.206;2022-09-09T12:51:23;31.00;38.20
32394;DHT22;18853;45.426;9.206;2022-09-09T12:53:50;31.00;39.10
32394;DHT22;18853;45.426;9.206;2022-09-09T12:56:20;30.90;40.00
32394;DHT22;18853;45.426;9.206;2022-09-09T12:58:46;31.10;40.30
32394;DHT22;18853;45.426;9.206;2022-09-09T13:01:29;31.20;40.10
32394;DHT22;18853;45.426;9.206;2022-09-09T13:03:55;31.30;40.10
32394;DHT22;18853;45.426;9.206;2022-09-09T13:06:24;31.30;40.40
32394;DHT22;18853;45.426;9.206;2022-09-09T13:08:51;31.40;39.50
32394;DHT22;18853;45.426;9.206;2022-09-09T13:11:18;31.30;38.10
32394;DHT22;18853;45.426;9.206;2022-09-09T13:13:50;31.40;38.30
32394;DHT22;18853;45.426;9.206;2022-09-09T13:16:26;31.50;38.30
32394;DHT22;18853;45.426;9.206;2022-09-09T13:18:52;31.50;38.70
32394;DHT22;18853;45.426;9.206;2022-09-09T13:21:18;31.50;37.70
32394;DHT22;18853;45.426;9.206;2022-09-09T13:23:48;31.60;37.50
32394;DHT22;18853;45.426;9.206;2022-09-09T13:26:24;31.70;39.30
32394;DHT22;18853;45.426;9.206;2022-09-09T13:28:51;31.80;39.40
32394;DHT22;18853;45.426;9.206;2022-09-09T13:31:22;31.90;38.90
32394;DHT22;18853;45.426;9.206;2022-09-09T13:33:48;32.00;38.40
32394;DHT22;18853;45.426;9.206;2022-09-09T13:36:13;32.10;38.60
32394;DHT22;18853;45.426;9.206;2022-09-09T13:41:33;32.20;38.10
32394;DHT22;18853;45.426;9.206;2022-09-09T13:43:59;32.20;37.10
32394;DHT22;18853;45.426;9.206;2022-09-09T13:46:35;32.30;36.60
32394;DHT22;18853;45.426;9.206;2022-09-09T13:51:37;32.50;37.60
32394;DHT22;18853;45.426;9.206;2022-09-09T13:54:06;32.60;36.70
32394;DHT22;18853;45.426;9.206;2022-09-09T13:56:34;32.80;36.20
32394;DHT22;18853;45.426;9.206;2022-09-09T13:59:00;32.80;35.70
32394;DHT22;18853;45.426;9.206;2022-09-09T14:01:26;32.80;36.10
32394;DHT22;18853;45.426;9.206;2022-09-09T14:03:53;32.80;35.40
32394;DHT22;18853;45.426;9.206;2022-09-09T14:06:18;32.70;35.40
32394;DHT22;18853;45.426;9.206;2022-09-09T14:08:44;32.80;36.90
32394;DHT22;18853;45.426;9.206;2022-09-09T14:11:11;32.90;36.50
32394;DHT22;18853;45.426;9.206;2022-09-09T14:13:37;33.10;35.60
32394;DHT22;18853;45.426;9.206;2022-09-09T14:16:03;33.20;36.40
32394;DHT22;18853;45.426;9.206;2022-09-09T14:18:28;33.20;35.40
32394;DHT22;18853;45.426;9.206;2022-09-09T14:20:54;33.30;34.60
32394;DHT22;18853;45.426;9.206;2022-09-09T14:23:19;33.30;34.50
32394;DHT22;18853;45.426;9.206;2022-09-09T14:25:47;33.30;34.50
32394;DHT22;18853;45.426;9.206;2022-09-09T14:28:12;33.50;36.10
32394;DHT22;18853;45.426;9.206;2022-09-09T14:30:39;33.50;35.00
32394;DHT22;18853;45.426;9.206;2022-09-09T14:33:05;33.50;34.40
32394;DHT22;18853;45.426;9.206;2022-09-09T14:35:31;33.50;35.50
32394;DHT22;18853;45.426;9.206;2022-09-09T14:37:58;33.50;34.40
32394;DHT22;18853;45.426;9.206;2022-09-09T14:40:24;33.60;35.10
32394;DHT22;18853;45.426;9.206;2022-09-09T14:42:49;33.60;34.10
32394;DHT22;18853;45.426;9.206;2022-09-09T14:45:15;33.70;33.90
32394;DHT22;18853;45.426;9.206;2022-09-09T14:47:40;33.70;34.30
32394;DHT22;18853;45.426;9.206;2022-09-09T14:50:06;33.80;33.90
32394;DHT22;18853;45.426;9.206;2022-09-09T14:52:33;34.00;33.70
32394;DHT22;18853;45.426;9.206;2022-09-09T14:54:58;34.00;34.20
32394;DHT22;18853;45.426;9.206;2022-09-09T14:57:24;34.00;33.00
32394;DHT22;18853;45.426;9.206;2022-09-09T14:59:49;34.00;32.80
32394;DHT22;18853;45.426;9.206;2022-09-09T15:02:15;34.00;31.90
32394;DHT22;18853;45.426;9.206;2022-09-09T15:04:41;34.10;33.10
32394;DHT22;18853;45.426;9.206;2022-09-09T15:07:06;34.20;34.00
32394;DHT22;18853;45.426;9.206;2022-09-09T15:09:32;34.30;33.70
32394;DHT22;18853;45.426;9.206;2022-09-09T15:11:57;34.30;33.80
32394;DHT22;18853;45.426;9.206;2022-09-09T15:14:23;34.30;33.30
32394;DHT22;18853;45.426;9.206;2022-09-09T15:16:48;34.30;32.90
32394;DHT22;18853;45.426;9.206;2022-09-09T15:19:14;34.20;32.90
32394;DHT22;18853;45.426;9.206;2022-09-09T15:21:39;34.30;31.80
32394;DHT22;18853;45.426;9.206;2022-09-09T15:24:05;34.30;32.60
32394;DHT22;18853;45.426;9.206;2022-09-09T15:26:32;34.40;33.70
32394;DHT22;18853;45.426;9.206;2022-09-09T15:28:58;34.50;33.50
32394;DHT22;18853;45.426;9.206;2022-09-09T15:31:25;34.50;32.90
32394;DHT22;18853;45.426;9.206;2022-09-09T15:33:52;34.50;33.10
32394;DHT22;18853;45.426;9.206;2022-09-09T15:38:43;34.60;32.50
32394;DHT22;18853;45.426;9.206;2022-09-09T15:41:09;34.60;32.30
32394;DHT22;18853;45.426;9.206;2022-09-09T15:43:35;34.60;32.90
32394;DHT22;18853;45.426;9.206;2022-09-09T15:46:02;34.60;32.90
32394;DHT22;18853;45.426;9.206;2022-09-09T15:48:30;34.60;32.40
32394;DHT22;18853;45.426;9.206;2022-09-09T15:51:02;34.60;32.60
32394;DHT22;18853;45.426;9.206;2022-09-09T15:53:29;34.50;32.20
32394;DHT22;18853;45.426;9.206;2022-09-09T15:55:55;34.60;32.60
32394;DHT22;18853;45.426;9.206;2022-09-09T15:58:21;34.50;32.60
32394;DHT22;18853;45.426;9.206;2022-09-09T16:00:46;34.50;32.90
32394;DHT22;18853;45.426;9.206;2022-09-09T16:03:12;34.50;32.40
32394;DHT22;18853;45.426;9.206;2022-09-09T16:05:38;34.60;32.30
32394;DHT22;18853;45.426;9.206;2022-09-09T16:08:03;34.60;32.70
32394;DHT22;18853;45.426;9.206;2022-09-09T16:10:29;34.60;32.60
32394;DHT22;18853;45.426;9.206;2022-09-09T16:12:56;34.60;32.10
32394;DHT22;18853;45.426;9.206;2022-09-09T16:15:21;34.60;32.40
32394;DHT22;18853;45.426;9.206;2022-09-09T16:17:48;34.60;32.50
32394;DHT22;18853;45.426;9.206;2022-09-09T16:20:14;34.60;32.40
32394;DHT22;18853;45.426;9.206;2022-09-09T16:22:40;34.50;32.30
32394;DHT22;18853;45.426;9.206;2022-09-09T16:25:05;34.50;31.90
32394;DHT22;18853;45.426;9.206;2022-09-09T16:27:31;34.40;32.60
32394;DHT22;18853;45.426;9.206;2022-09-09T16:29:57;34.30;32.50
32394;DHT22;18853;45.426;9.206;2022-09-09T16:32:22;34.30;32.50
32394;DHT22;18853;45.426;9.206;2022-09-09T16:34:48;34.20;32.20
32394;DHT22;18853;45.426;9.206;2022-09-09T16:37:13;34.00;32.30
32394;DHT22;18853;45.426;9.206;2022-09-09T16:39:39;33.90;32.70
32394;DHT22;18853;45.426;9.206;2022-09-09T16:42:04;33.80;33.00
32394;DHT22;18853;45.426;9.206;2022-09-09T16:44:30;33.70;33.00
32394;DHT22;18853;45.426;9.206;2022-09-09T16:46:55;33.60;33.10
32394;DHT22;18853;45.426;9.206;2022-09-09T16:49:21;33.60;33.10
32394;DHT22;18853;45.426;9.206;2022-09-09T16:51:48;33.40;32.90
32394;DHT22;18853;45.426;9.206;2022-09-09T16:54:15;33.40;33.20
32394;DHT22;18853;45.426;9.206;2022-09-09T16:56:42;33.30;33.20
32394;DHT22;18853;45.426;9.206;2022-09-09T16:59:12;33.30;33.30
32394;DHT22;18853;45.426;9.206;2022-09-09T17:01:38;33.20;33.40
32394;DHT22;18853;45.426;9.206;2022-09-09T17:04:09;33.20;33.70
32394;DHT22;18853;45.426;9.206;2022-09-09T17:06:36;33.20;33.60
32394;DHT22;18853;45.426;9.206;2022-09-09T17:09:07;33.10;33.80
32394;DHT22;18853;45.426;9.206;2022-09-09T17:11:33;33.10;33.90
32394;DHT22;18853;45.426;9.206;2022-09-09T17:13:58;33.00;34.30
32394;DHT22;18853;45.426;9.206;2022-09-09T17:16:26;33.00;34.40
32394;DHT22;18853;45.426;9.206;2022-09-09T17:18:52;32.90;34.40
32394;DHT22;18853;45.426;9.206;2022-09-09T17:21:20;32.90;34.50
32394;DHT22;18853;45.426;9.206;2022-09-09T17:23:46;32.80;34.30
32394;DHT22;18853;45.426;9.206;2022-09-09T17:26:13;32.80;34.20
32394;DHT22;18853;45.426;9.206;2022-09-09T17:28:39;32.70;34.80
32394;DHT22;18853;45.426;9.206;2022-09-09T17:31:05;32.70;35.40
32394;DHT22;18853;45.426;9.206;2022-09-09T17:33:32;32.70;35.60
32394;DHT22;18853;45.426;9.206;2022-09-09T17:35:59;32.60;35.70
32394;DHT22;18853;45.426;9.206;2022-09-09T17:38:26;32.50;35.90
32394;DHT22;18853;45.426;9.206;2022-09-09T17:41:01;32.50;36.10
32394;DHT22;18853;45.426;9.206;2022-09-09T17:43:26;32.50;36.30